Thunderstorms From: 22-05-2018 15:00 Until: 23-05-2018 15:00 warning for: Thunderstorms Level: Yellow info button

Although rather usual in this region, locally or potentially dangerous phenomena are expected. (such as local winds, summer thunderstorms, rising streams or high waves) Be aware and pay attention to the latest weather updates, especially if you carry out activities exposed to weather or close to a stream or shoreline. 


Meteo18 Weather Cam more information Meteo18 Weather Cam


warning for Thunderstorms more information blitzortung!


Rain radar more information rain snow radar


Visit our other weather sites:

Template documentation
and downloads

And another site



Weather Underground History page Text

Daily Summary for April 21, 2017 Units:  English    Metric   Both
« Previous Day
Next Day »
Daily Weekly Monthly Yearly Custom
  High: Low: Average:
Temperature: TemperatureC °F 2.0 °F 9.7 °F
Dew Point: DewpointC °F -3.4 °F -1.7 °F
Humidity: Humidity % 28 % 47 %
Wind Speed: WindSpeedKMH mph 0.0 mph 5.4 mph
Wind Gust: WindSpeedGustKMH mph - -
Wind:- - SE
Pressure: PressurehPa in 1029.0 in -
Precipitation: 0.0 in    
Historical Graphs
 
 
Tabular Data for April 21, 2017
Time Temperature Dew Point Pressure Wind Wind Speed Wind Gust Humidity Rainfall Rate (Hourly)
TemperatureC °F DewpointC °F PressurehPa in Calm     Humidity % HourlyPrecipMM in
00:02 6.7 °F -2.2 °F 1032.7 in NNE 16.1 mph 20.9 mph 53 % 0.0 in
00:12 6.6 °F -2.0 °F 1032.7 in North 8.0 mph 20.9 mph 54 % 0.0 in
00:17 6.5 °F -2.1 °F 1032.7 in NE 1.6 mph 20.9 mph 54 % 0.0 in
00:22 6.2 °F -2.2 °F 1033.1 in NNE 3.2 mph 20.9 mph 55 % 0.0 in
00:27 6.0 °F -2.1 °F 1033.1 in NW 3.2 mph 20.9 mph 56 % 0.0 in
00:32 5.8 °F -2.1 °F 1033.1 in NNW 4.8 mph 19.3 mph 57 % 0.0 in
00:37 5.7 °F -2.2 °F 1033.1 in NNE 3.2 mph 19.3 mph 57 % 0.0 in
00:42 5.5 °F -2.1 °F 1033.1 in North 3.2 mph 12.9 mph 58 % 0.0 in
00:52 5.3 °F -2.3 °F 1033.1 in NE 6.4 mph 16.1 mph 58 % 0.0 in
00:57 5.2 °F -2.2 °F 1033.1 in NNE 3.2 mph 16.1 mph 59 % 0.0 in
01:02 5.1 °F -2.3 °F 1033.1 in North 6.4 mph 16.1 mph 59 % 0.0 in
01:07 5.0 °F -2.3 °F 1033.1 in North 3.2 mph 11.3 mph 59 % 0.0 in
01:12 4.8 °F -2.3 °F 1033.1 in Calm   11.3 mph 60 % 0.0 in
01:17 4.7 °F -2.2 °F 1033.1 in North 3.2 mph 12.9 mph 61 % 0.0 in
01:22 4.7 °F -2.2 °F 1033.1 in NE 3.2 mph 12.9 mph 61 % 0.0 in
01:27 4.6 °F -2.3 °F 1033.1 in NW 1.6 mph 9.7 mph 61 % 0.0 in
01:32 4.6 °F -2.3 °F 1033.1 in NW 1.6 mph 9.7 mph 61 % 0.0 in
01:37 4.6 °F -2.3 °F 1033.1 in NNW 4.8 mph 9.7 mph 61 % 0.0 in
01:42 4.4 °F -2.2 °F 1033.1 in NNW 1.6 mph 9.7 mph 62 % 0.0 in
01:47 4.4 °F -2.5 °F 1033.1 in North 8.0 mph 9.7 mph 61 % 0.0 in
01:57 4.4 °F -2.2 °F 1033.1 in North 3.2 mph 9.7 mph 62 % 0.0 in
02:02 4.3 °F -2.3 °F 1033.1 in NNW 3.2 mph 9.7 mph 62 % 0.0 in
02:07 4.3 °F -2.3 °F 1033.1 in North 3.2 mph 9.7 mph 62 % 0.0 in
02:12 4.2 °F -2.4 °F 1033.1 in NNE 3.2 mph 6.4 mph 62 % 0.0 in
02:22 4.1 °F -2.5 °F 1032.7 in NE 1.6 mph 6.4 mph 62 % 0.0 in
02:32 4.1 °F -2.3 °F 1032.7 in NNW 4.8 mph 6.4 mph 63 % 0.0 in
02:37 4.0 °F -2.6 °F 1032.7 in NNE 3.2 mph 4.8 mph 62 % 0.0 in
02:42 3.8 °F -2.6 °F 1032.7 in Calm   4.8 mph 63 % 0.0 in
02:47 3.7 °F -2.7 °F 1032.7 in NE 8.0 mph 8.0 mph 63 % 0.0 in
02:52 3.8 °F -2.6 °F 1032.7 in NNE 4.8 mph 6.4 mph 63 % 0.0 in
02:57 3.8 °F -2.6 °F 1032.7 in NW 3.2 mph 8.0 mph 63 % 0.0 in
03:02 3.7 °F -2.5 °F 1032.7 in NNW 3.2 mph 8.0 mph 64 % 0.0 in
03:12 3.7 °F -2.7 °F 1032.7 in North 4.8 mph 8.0 mph 63 % 0.0 in
03:17 3.6 °F -2.6 °F 1032.7 in NNW 6.4 mph 11.3 mph 64 % 0.0 in
03:22 3.4 °F -2.8 °F 1032.7 in North 8.0 mph 11.3 mph 64 % 0.0 in
03:32 3.6 °F -2.6 °F 1032.7 in NW 4.8 mph 11.3 mph 64 % 0.0 in
03:37 3.6 °F -2.8 °F 1032.7 in North 4.8 mph 9.7 mph 63 % 0.0 in
03:42 3.6 °F -2.6 °F 1032.7 in North 3.2 mph 9.7 mph 64 % 0.0 in
03:47 3.4 °F -2.8 °F 1032.7 in NW 1.6 mph 11.3 mph 64 % 0.0 in
03:52 3.3 °F -2.9 °F 1032.4 in Calm   11.3 mph 64 % 0.0 in
03:57 3.2 °F -3.0 °F 1032.4 in Calm   8.0 mph 64 % 0.0 in
04:02 3.1 °F -2.8 °F 1032.4 in North 4.8 mph 8.0 mph 65 % 0.0 in
04:12 2.8 °F -3.1 °F 1032.4 in Calm   6.4 mph 65 % 0.0 in
04:17 2.7 °F -3.0 °F 1032.4 in NW 1.6 mph 4.8 mph 66 % 0.0 in
04:27 2.8 °F -2.9 °F 1032.4 in WNW 3.2 mph 3.2 mph 66 % 0.0 in
04:32 2.6 °F -3.1 °F 1032.4 in WNW 3.2 mph 3.2 mph 66 % 0.0 in
04:42 2.9 °F -3.0 °F 1032.4 in NW 1.6 mph 3.2 mph 65 % 0.0 in
04:47 3.1 °F -3.0 °F 1032.4 in NW 1.6 mph 3.2 mph 64 % 0.0 in
04:52 2.9 °F -3.0 °F 1032.4 in NW 3.2 mph 3.2 mph 65 % 0.0 in
04:57 3.1 °F -3.0 °F 1032.4 in WNW 3.2 mph 3.2 mph 64 % 0.0 in
05:12 3.2 °F -3.2 °F 1032.4 in North 4.8 mph 4.8 mph 63 % 0.0 in
05:17 3.2 °F -3.2 °F 1032.4 in NW 1.6 mph 6.4 mph 63 % 0.0 in
05:22 3.1 °F -3.0 °F 1032.4 in NNW 1.6 mph 6.4 mph 64 % 0.0 in
05:32 2.9 °F -3.2 °F 1032.4 in North 3.2 mph 6.4 mph 64 % 0.0 in
05:42 2.7 °F -3.2 °F 1032.4 in Calm   4.8 mph 65 % 0.0 in
05:47 2.6 °F -3.3 °F 1032.4 in North 3.2 mph 3.2 mph 65 % 0.0 in
05:52 2.6 °F -3.3 °F 1032.4 in NNE 1.6 mph 3.2 mph 65 % 0.0 in
06:02 2.4 °F -3.3 °F 1032.4 in Calm   3.2 mph 66 % 0.0 in
06:12 2.5 °F -3.2 °F 1032.4 in NNW 3.2 mph 6.4 mph 66 % 0.0 in
06:17 2.6 °F -3.3 °F 1032.1 in NNW 1.6 mph 6.4 mph 65 % 0.0 in
06:22 2.7 °F -3.2 °F 1032.1 in NNW 3.2 mph 6.4 mph 65 % 0.0 in
06:27 2.7 °F -3.2 °F 1032.1 in NNW 1.6 mph 4.8 mph 65 % 0.0 in
06:32 2.7 °F -3.2 °F 1032.1 in NNW 3.2 mph 4.8 mph 65 % 0.0 in
06:37 2.4 °F -3.3 °F 1032.4 in Calm   4.8 mph 66 % 0.0 in
06:42 2.1 °F -3.4 °F 1032.1 in Calm   4.8 mph 67 % 0.0 in
06:47 2.0 °F -3.3 °F 1032.4 in North 3.2 mph 6.4 mph 68 % 0.0 in
06:52 2.1 °F -3.4 °F 1032.1 in NNW 1.6 mph 6.4 mph 67 % 0.0 in
06:57 2.1 °F -3.4 °F 1032.1 in NNE 1.6 mph 6.4 mph 67 % 0.0 in
07:02 2.2 °F -3.3 °F 1032.4 in North 4.8 mph 6.4 mph 67 % 0.0 in
07:12 2.4 °F -3.3 °F 1032.4 in Calm   4.8 mph 66 % 0.0 in
07:22 2.8 °F -3.1 °F 1032.4 in NNW 1.6 mph 4.8 mph 65 % 0.0 in
07:32 2.9 °F -3.0 °F 1032.4 in Calm   4.8 mph 65 % 0.0 in
07:42 3.2 °F -2.7 °F 1032.4 in North 1.6 mph 4.8 mph 65 % 0.0 in
07:47 3.2 °F -2.7 °F 1032.4 in North 1.6 mph 4.8 mph 65 % 0.0 in
07:52 3.3 °F -2.7 °F 1032.4 in Calm   4.8 mph 65 % 0.0 in
07:57 3.6 °F -2.4 °F 1032.4 in Calm   4.8 mph 65 % 0.0 in
08:02 3.9 °F -2.1 °F 1032.4 in North 1.6 mph 4.8 mph 65 % 0.0 in
08:12 4.4 °F -2.0 °F 1032.7 in NNE 3.2 mph 4.8 mph 63 % 0.0 in
08:17 4.6 °F -1.8 °F 1032.7 in NNE 4.8 mph 6.4 mph 63 % 0.0 in
08:22 4.8 °F -1.9 °F 1032.7 in NNE 4.8 mph 6.4 mph 62 % 0.0 in
08:32 5.2 °F -1.9 °F 1032.7 in NNE 8.0 mph 8.0 mph 60 % 0.0 in
08:42 5.4 °F -2.2 °F 1032.7 in NNE 4.8 mph 9.7 mph 58 % 0.0 in
08:47 5.7 °F -1.9 °F 1032.7 in NNE 6.4 mph 11.3 mph 58 % 0.0 in
08:52 5.7 °F -2.2 °F 1032.7 in NE 6.4 mph 11.3 mph 57 % 0.0 in
08:57 5.8 °F -2.1 °F 1032.7 in NNE 8.0 mph 12.9 mph 57 % 0.0 in
09:02 6.2 °F -1.2 °F 1033.1 in NNE 4.8 mph 12.9 mph 59 % 0.0 in
09:12 6.6 °F -1.3 °F 1032.7 in ENE 9.7 mph 12.9 mph 57 % 0.0 in
09:17 6.8 °F -1.9 °F 1032.7 in NE 12.9 mph 12.9 mph 54 % 0.0 in
09:22 6.8 °F -1.9 °F 1032.7 in NE 12.9 mph 12.9 mph 54 % 0.0 in
09:27 6.9 °F -1.3 °F 1032.7 in NNE 11.3 mph 17.7 mph 56 % 0.0 in
09:32 7.2 °F -1.2 °F 1032.7 in North 6.4 mph 17.7 mph 55 % 0.0 in
09:42 7.5 °F -1.0 °F 1032.7 in NNE 4.8 mph 16.1 mph 55 % 0.0 in
09:52 7.9 °F -0.8 °F 1032.7 in NNE 11.3 mph 12.9 mph 54 % 0.0 in
09:57 8.2 °F -0.6 °F 1032.7 in NE 9.7 mph 14.5 mph 54 % 0.0 in
10:02 8.4 °F -0.6 °F 1033.1 in North 9.7 mph 14.5 mph 53 % 0.0 in
10:12 8.7 °F -1.1 °F 1033.1 in NE 12.9 mph 12.9 mph 50 % 0.0 in
10:17 8.9 °F -1.2 °F 1033.1 in NE 9.7 mph 16.1 mph 49 % 0.0 in
10:22 9.1 °F -1.6 °F 1033.1 in North 8.0 mph 16.1 mph 47 % 0.0 in
10:32 9.4 °F -0.8 °F 1033.1 in NNE 6.4 mph 16.1 mph 49 % 0.0 in
10:42 9.9 °F -0.6 °F 1033.1 in NE 4.8 mph 17.7 mph 48 % 0.0 in
10:52 9.9 °F -0.9 °F 1033.1 in ENE 11.3 mph 17.7 mph 47 % 0.0 in
11:02 10.3 °F -0.8 °F 1033.1 in NNE 4.8 mph 19.3 mph 46 % 0.0 in
11:12 10.7 °F -0.8 °F 1033.1 in NNW 8.0 mph 19.3 mph 45 % 0.0 in
11:17 11.1 °F -0.7 °F 1033.1 in NE 9.7 mph 19.3 mph 44 % 0.0 in
11:22 11.1 °F -1.3 °F 1033.1 in NNE 20.9 mph 20.9 mph 42 % 0.0 in
11:32 11.5 °F -1.3 °F 1033.1 in NE 9.7 mph 24.1 mph 41 % 0.0 in
11:42 11.7 °F -2.2 °F 1033.1 in NE 9.7 mph 24.1 mph 38 % 0.0 in
11:52 11.9 °F -2.0 °F 1032.7 in ENE 8.0 mph 22.5 mph 38 % 0.0 in
12:02 12.1 °F -2.9 °F 1032.7 in NE 3.2 mph 25.7 mph 35 % 0.0 in
12:12 12.7 °F -2.0 °F 1032.7 in NE 19.3 mph 22.5 mph 36 % 0.0 in
12:17 12.6 °F -1.4 °F 1032.7 in NNE 8.0 mph 24.1 mph 38 % 0.0 in
12:22 12.8 °F -1.2 °F 1032.7 in NE 6.4 mph 27.4 mph 38 % 0.0 in
12:27 12.7 °F -2.8 °F 1032.7 in ENE 8.0 mph 27.4 mph 34 % 0.0 in
12:32 13.1 °F -2.0 °F 1032.7 in NNE 14.5 mph 27.4 mph 35 % 0.0 in
12:37 13.2 °F -1.6 °F 1032.7 in ENE 6.4 mph 27.4 mph 36 % 0.0 in
12:42 13.2 °F -2.3 °F 1032.4 in NE 9.7 mph 27.4 mph 34 % 0.0 in
12:47 13.3 °F -1.8 °F 1032.4 in ESE 8.0 mph 24.1 mph 35 % 0.0 in
12:52 13.6 °F -1.6 °F 1032.4 in ENE 11.3 mph 24.1 mph 35 % 0.0 in
12:57 13.5 °F -1.3 °F 1032.4 in NNE 8.0 mph 24.1 mph 36 % 0.0 in
13:02 13.7 °F -1.1 °F 1032.4 in ENE 12.9 mph 24.1 mph 36 % 0.0 in
13:07 13.8 °F -1.4 °F 1032.4 in NNE 19.3 mph 19.3 mph 35 % 0.0 in
13:12 13.7 °F -1.1 °F 1032.4 in ENE 6.4 mph 17.7 mph 36 % 0.0 in
13:17 13.6 °F -2.8 °F 1032.4 in ENE 9.7 mph 24.1 mph 32 % 0.0 in
13:22 13.9 °F -0.9 °F 1032.4 in ENE 9.7 mph 24.1 mph 36 % 0.0 in
13:27 13.9 °F -1.7 °F 1032.1 in North 19.3 mph 24.1 mph 34 % 0.0 in
13:32 13.8 °F -2.6 °F 1032.1 in NE 11.3 mph 24.1 mph 32 % 0.0 in
13:37 13.9 °F -1.3 °F 1032.1 in NE 11.3 mph 24.1 mph 35 % 0.0 in
13:42 14.0 °F -1.6 °F 1032.1 in NNE 12.9 mph 24.1 mph 34 % 0.0 in
13:52 14.2 °F -2.3 °F 1032.1 in ENE 9.7 mph 22.5 mph 32 % 0.0 in
13:57 13.9 °F -2.5 °F 1032.1 in NE 9.7 mph 22.5 mph 32 % 0.0 in
14:12 14.3 °F -2.6 °F 1031.7 in ENE 6.4 mph 22.5 mph 31 % 0.0 in
14:17 14.3 °F -2.6 °F 1031.7 in NE 9.7 mph 22.5 mph 31 % 0.0 in
14:22 14.5 °F -2.0 °F 1031.7 in NW 1.6 mph 22.5 mph 32 % 0.0 in
14:27 14.7 °F -1.0 °F 1031.7 in ENE 8.0 mph 27.4 mph 34 % 0.0 in
14:32 14.8 °F -2.2 °F 1031.7 in NE 14.5 mph 27.4 mph 31 % 0.0 in
14:42 15.1 °F -1.5 °F 1031.7 in ENE 12.9 mph 20.9 mph 32 % 0.0 in
14:47 15.2 °F -1.8 °F 1031.4 in NNE 9.7 mph 19.3 mph 31 % 0.0 in
14:52 14.9 °F -3.0 °F 1031.4 in North 8.0 mph 19.3 mph 29 % 0.0 in
14:57 15.2 °F -1.8 °F 1031.4 in East 12.9 mph 17.7 mph 31 % 0.0 in
15:02 15.2 °F -3.2 °F 1031.4 in SE 3.2 mph 17.7 mph 28 % 0.0 in
15:07 15.3 °F -1.7 °F 1031.4 in ENE 9.7 mph 16.1 mph 31 % 0.0 in
15:12 15.3 °F -2.6 °F 1031.4 in ENE 8.0 mph 16.1 mph 29 % 0.0 in
15:17 15.2 °F -1.4 °F 1031.0 in NNE 12.9 mph 19.3 mph 32 % 0.0 in
15:22 15.6 °F -1.9 °F 1031.0 in East 12.9 mph 19.3 mph 30 % 0.0 in
15:27 15.5 °F -2.5 °F 1031.0 in ENE 6.4 mph 22.5 mph 29 % 0.0 in
15:32 15.6 °F -1.9 °F 1031.0 in NNE 6.4 mph 22.5 mph 30 % 0.0 in
15:37 15.7 °F -1.0 °F 1031.0 in ENE 12.9 mph 17.7 mph 32 % 0.0 in
15:42 15.8 °F -0.9 °F 1031.0 in ENE 6.4 mph 17.7 mph 32 % 0.0 in
15:47 15.8 °F -1.7 °F 1030.7 in SE 1.6 mph 19.3 mph 30 % 0.0 in
15:52 15.9 °F -1.2 °F 1030.7 in East 3.2 mph 19.3 mph 31 % 0.0 in
15:57 15.9 °F -1.7 °F 1030.7 in East 6.4 mph 19.3 mph 30 % 0.0 in
16:02 15.9 °F -1.7 °F 1030.7 in NE 6.4 mph 19.3 mph 30 % 0.0 in
16:12 16.0 °F -1.6 °F 1030.4 in ENE 8.0 mph 16.1 mph 30 % 0.0 in
16:17 16.2 °F -1.4 °F 1030.4 in NNE 11.3 mph 17.7 mph 30 % 0.0 in
16:22 15.9 °F -2.6 °F 1030.4 in Calm   17.7 mph 28 % 0.0 in
16:27 15.9 °F -1.2 °F 1030.4 in NNE 14.5 mph 20.9 mph 31 % 0.0 in
16:32 16.1 °F -1.0 °F 1030.4 in Calm   20.9 mph 31 % 0.0 in
16:37 16.3 °F -1.8 °F 1030.4 in Calm   20.9 mph 29 % 0.0 in
16:42 16.3 °F -1.8 °F 1030.0 in NNE 8.0 mph 20.9 mph 29 % 0.0 in
16:47 16.1 °F -1.5 °F 1030.0 in NE 8.0 mph 20.9 mph 30 % 0.0 in
16:52 16.4 °F -0.3 °F 1030.0 in NE 3.2 mph 20.9 mph 32 % 0.0 in
17:02 16.5 °F -1.6 °F 1030.0 in NNE 1.6 mph 20.9 mph 29 % 0.0 in
17:12 16.3 °F -1.8 °F 1030.0 in ENE 8.0 mph 14.5 mph 29 % 0.0 in
17:17 16.2 °F -1.4 °F 1030.0 in North 3.2 mph 17.7 mph 30 % 0.0 in
17:22 16.2 °F -1.4 °F 1030.0 in North 4.8 mph 17.7 mph 30 % 0.0 in
17:32 16.4 °F -1.2 °F 1029.7 in ENE 4.8 mph 17.7 mph 30 % 0.0 in
17:37 16.4 °F -1.2 °F 1029.7 in East 9.7 mph 14.5 mph 30 % 0.0 in
17:42 16.6 °F -0.6 °F 1029.7 in ENE 9.7 mph 14.5 mph 31 % 0.0 in
17:52 16.3 °F -1.3 °F 1029.7 in ENE 4.8 mph 14.5 mph 30 % 0.0 in
18:02 16.4 °F -1.2 °F 1029.7 in NE 8.0 mph 17.7 mph 30 % 0.0 in
18:07 16.6 °F -0.2 °F 1029.7 in ENE 3.2 mph 17.7 mph 32 % 0.0 in
18:12 16.4 °F -1.7 °F 1029.7 in Calm   17.7 mph 29 % 0.0 in
18:17 16.4 °F -1.2 °F 1029.7 in NE 12.9 mph 17.7 mph 30 % 0.0 in
18:22 16.4 °F -1.2 °F 1029.7 in North 4.8 mph 17.7 mph 30 % 0.0 in
18:32 16.4 °F -1.2 °F 1029.3 in ENE 9.7 mph 16.1 mph 30 % 0.0 in
18:37 16.2 °F -1.0 °F 1029.3 in NE 8.0 mph 16.1 mph 31 % 0.0 in
18:42 16.2 °F -0.5 °F 1029.3 in NNW 3.2 mph 16.1 mph 32 % 0.0 in
18:52 16.4 °F -0.3 °F 1029.3 in NE 6.4 mph 14.5 mph 32 % 0.0 in
18:57 16.4 °F -0.8 °F 1029.3 in NE 4.8 mph 11.3 mph 31 % 0.0 in
19:02 16.2 °F -1.0 °F 1029.3 in NNE 3.2 mph 11.3 mph 31 % 0.0 in
19:07 16.2 °F -1.0 °F 1029.3 in NE 9.7 mph 12.9 mph 31 % 0.0 in
19:12 16.2 °F -1.4 °F 1029.3 in NE 3.2 mph 12.9 mph 30 % 0.0 in
19:17 16.1 °F -1.5 °F 1029.3 in NNE 4.8 mph 12.9 mph 30 % 0.0 in
19:22 16.1 °F -1.5 °F 1029.3 in NNE 6.4 mph 12.9 mph 30 % 0.0 in
19:27 15.9 °F -1.2 °F 1029.3 in NE 9.7 mph 11.3 mph 31 % 0.0 in
19:32 15.8 °F -1.3 °F 1029.3 in NE 6.4 mph 11.3 mph 31 % 0.0 in
19:42 15.8 °F -0.9 °F 1029.3 in NE 1.6 mph 12.9 mph 32 % 0.0 in
19:52 15.7 °F -1.0 °F 1029.3 in NE 4.8 mph 9.7 mph 32 % 0.0 in
19:57 15.5 °F -0.7 °F 1029.0 in NNE 3.2 mph 9.7 mph 33 % 0.0 in
20:02 15.4 °F -1.2 °F 1029.3 in NE 3.2 mph 9.7 mph 32 % 0.0 in
20:07 15.3 °F -0.9 °F 1029.0 in NNE 4.8 mph 9.7 mph 33 % 0.0 in
20:12 15.3 °F -0.9 °F 1029.0 in NE 3.2 mph 9.7 mph 33 % 0.0 in
20:17 15.2 °F -1.0 °F 1029.0 in NNE 4.8 mph 6.4 mph 33 % 0.0 in
20:22 15.1 °F -0.7 °F 1029.0 in NE 4.8 mph 6.4 mph 34 % 0.0 in
20:32 14.4 °F -0.5 °F 1029.0 in NE 1.6 mph 6.4 mph 36 % 0.0 in
20:37 14.1 °F -0.8 °F 1029.0 in NNE 4.8 mph 6.4 mph 36 % 0.0 in
20:42 13.9 °F -1.3 °F 1029.0 in NE 4.8 mph 6.4 mph 35 % 0.0 in
20:52 13.4 °F -1.0 °F 1029.0 in NNE 4.8 mph 6.4 mph 37 % 0.0 in
20:57 13.1 °F -0.5 °F 1029.0 in Calm   6.4 mph 39 % 0.0 in
21:02 12.8 °F -0.5 °F 1029.0 in Calm   6.4 mph 40 % 0.0 in
21:07 12.6 °F -0.6 °F 1029.0 in Calm   6.4 mph 40 % 0.0 in
21:17 12.2 °F -0.7 °F 1029.0 in NNW 1.6 mph 3.2 mph 41 % 0.0 in
21:22 11.9 °F -0.6 °F 1029.3 in NNW 1.6 mph 3.2 mph 42 % 0.0 in
21:32 11.5 °F -0.7 °F 1029.0 in Calm   6.4 mph 43 % 0.0 in
21:37 11.3 °F -0.5 °F 1029.0 in NNW 1.6 mph 6.4 mph 44 % 0.0 in
21:42 11.2 °F -0.6 °F 1029.3 in NNW 1.6 mph 6.4 mph 44 % 0.0 in
21:52 10.9 °F -0.9 °F 1029.3 in NNW 1.6 mph 4.8 mph 44 % 0.0 in
21:57 10.8 °F -0.7 °F 1029.3 in Calm   3.2 mph 45 % 0.0 in
22:02 10.7 °F -0.8 °F 1029.3 in NNW 1.6 mph 3.2 mph 45 % 0.0 in
22:07 10.6 °F -0.5 °F 1029.3 in NNW 1.6 mph 3.2 mph 46 % 0.0 in
22:12 10.6 °F -0.5 °F 1029.3 in NNW 3.2 mph 3.2 mph 46 % 0.0 in
22:17 10.6 °F -0.2 °F 1029.3 in North 3.2 mph 3.2 mph 47 % 0.0 in
22:22 10.3 °F -0.2 °F 1029.3 in NNW 1.6 mph 3.2 mph 48 % 0.0 in
22:32 10.1 °F -0.1 °F 1029.3 in NNW 1.6 mph 6.4 mph 49 % 0.0 in
22:37 10.2 °F 0.0 °F 1029.3 in NNW 3.2 mph 4.8 mph 49 % 0.0 in
22:42 10.2 °F 0.0 °F 1029.3 in NNW 3.2 mph 4.8 mph 49 % 0.0 in
22:47 10.0 °F 0.1 °F 1029.3 in NNW 1.6 mph 4.8 mph 50 % 0.0 in
22:52 9.9 °F 0.0 °F 1029.3 in NNW 1.6 mph 4.8 mph 50 % 0.0 in
22:57 9.8 °F -0.1 °F 1029.3 in NNW 1.6 mph 4.8 mph 50 % 0.0 in
23:02 9.8 °F 0.1 °F 1029.3 in Calm   4.8 mph 51 % 0.0 in
23:12 9.6 °F 0.2 °F 1029.3 in NW 3.2 mph 4.8 mph 52 % 0.0 in
23:17 9.6 °F 0.2 °F 1029.3 in NNE 3.2 mph 4.8 mph 52 % 0.0 in
23:22 9.6 °F 0.2 °F 1029.0 in North 1.6 mph 4.8 mph 52 % 0.0 in
23:32 9.7 °F 0.0 °F 1029.0 in North 3.2 mph 6.4 mph 51 % 0.0 in
23:42 9.5 °F 0.1 °F 1029.3 in NE 4.8 mph 6.4 mph 52 % 0.0 in
23:47 9.4 °F 0.0 °F 1029.3 in NE 6.4 mph 8.0 mph 52 % 0.0 in
23:52 9.3 °F -0.1 °F 1029.3 in NNW 4.8 mph 8.0 mph 52 % 0.0 in
23:57 9.3 °F -0.1 °F 1029.3 in NE 6.4 mph 8.0 mph 52 % 0.0 in
Meteo18
Compliments of Weather Underground - 4 mb

Script developed by  Jim McMurry - jmcmurry@mwt.net Adapted for the template by  Wim van der Kuil - Leuven-Template.eu

You find our weather info also at:

European Weather Network

Weather Underground

Equipment we use:

Weather-station
Davis Vue

Weather-program
Meteobridge

Weather-server
Raspberry PI 2 B+

Provider
1 and 1

Davis Vue

Meteobridge

Raspberry PI 2 B+

1 and 1